createdAt,value
2022-12-26T00:01:26.419Z,44.70
2022-12-26T00:06:30.346Z,49.80
2022-12-26T00:11:32.113Z,51.30
2022-12-26T00:16:42.164Z,46.30
2022-12-26T00:21:43.939Z,41.60
2022-12-26T00:26:45.696Z,39.70
2022-12-26T00:31:47.579Z,35.90
2022-12-26T00:36:49.510Z,26.50
2022-12-26T00:41:51.311Z,24.80
2022-12-26T00:46:53.087Z,23.00
2022-12-26T00:51:54.982Z,20.50
2022-12-26T00:56:56.685Z,21.90
2022-12-26T01:01:58.543Z,20.40
2022-12-26T01:07:00.685Z,20.50
2022-12-26T01:12:02.420Z,23.10
2022-12-26T01:17:04.111Z,22.40
2022-12-26T01:22:05.861Z,22.70
2022-12-26T01:27:07.625Z,21.80
2022-12-26T01:32:09.455Z,21.60
2022-12-26T01:37:13.782Z,21.40
2022-12-26T01:42:21.574Z,20.90
2022-12-26T01:47:25.616Z,19.50
2022-12-26T01:52:38.727Z,20.60
2022-12-26T01:57:47.761Z,21.10
2022-12-26T02:03:09.174Z,19.00
2022-12-26T02:08:23.111Z,18.20
2022-12-26T02:13:25.303Z,17.00
2022-12-26T02:18:26.999Z,18.80
2022-12-26T02:24:16.730Z,16.70
2022-12-26T02:29:31.624Z,17.00
2022-12-26T02:35:17.138Z,14.90
2022-12-26T02:40:32.113Z,17.70
2022-12-26T02:46:20.505Z,17.70
2022-12-26T02:52:15.710Z,16.90
2022-12-26T02:57:40.927Z,18.10
2022-12-26T03:03:17.760Z,17.20
2022-12-26T03:08:47.140Z,17.20
2022-12-26T03:13:50.905Z,16.20
2022-12-26T03:19:00.605Z,16.70
2022-12-26T03:24:02.763Z,16.60
2022-12-26T03:29:23.258Z,15.70
2022-12-26T03:34:25.737Z,15.00
2022-12-26T03:39:53.902Z,11.90
2022-12-26T03:45:27.908Z,10.50
2022-12-26T03:51:03.148Z,8.60
2022-12-26T03:56:36.237Z,8.00
2022-12-26T04:01:59.071Z,7.50
2022-12-26T04:07:30.112Z,7.60
2022-12-26T04:12:55.180Z,6.60
2022-12-26T04:18:22.534Z,7.00
2022-12-26T04:24:04.158Z,5.90
2022-12-26T04:29:24.660Z,7.20
2022-12-26T04:34:52.218Z,5.30
2022-12-26T04:40:15.281Z,5.50
2022-12-26T04:45:17.973Z,5.60
2022-12-26T04:50:19.686Z,4.80
2022-12-26T04:55:21.508Z,5.60
2022-12-26T05:00:25.437Z,5.60
2022-12-26T05:05:45.949Z,5.40
2022-12-26T05:10:47.844Z,5.70
2022-12-26T05:16:08.583Z,5.70
2022-12-26T05:21:36.856Z,6.00
2022-12-26T05:26:57.271Z,5.60
2022-12-26T05:31:59.170Z,5.50
2022-12-26T05:37:02.583Z,5.60
2022-12-26T05:42:04.472Z,5.50
2022-12-26T05:47:06.194Z,5.20
2022-12-26T05:52:08.134Z,5.60
2022-12-26T05:57:09.923Z,5.50
2022-12-26T06:02:11.779Z,5.70
2022-12-26T06:07:13.949Z,5.40
2022-12-26T06:12:15.655Z,5.50
2022-12-26T06:17:17.430Z,5.70
2022-12-26T06:22:19.167Z,5.20
2022-12-26T06:27:21.024Z,5.00
2022-12-26T06:32:22.861Z,6.10
2022-12-26T06:37:24.627Z,6.60
2022-12-26T06:42:26.327Z,6.20
2022-12-26T06:47:29.046Z,6.10
2022-12-26T06:52:30.728Z,7.30
2022-12-26T06:57:32.471Z,6.20
2022-12-26T07:02:34.310Z,5.90
2022-12-26T07:07:36.185Z,6.90
2022-12-26T07:12:37.980Z,6.40
2022-12-26T07:17:39.791Z,6.60
2022-12-26T07:22:41.527Z,7.10
2022-12-26T07:27:43.296Z,7.30
2022-12-26T07:32:45.033Z,7.20
2022-12-26T07:37:46.789Z,6.60
2022-12-26T07:42:48.516Z,7.50
2022-12-26T07:47:54.347Z,7.60
2022-12-26T07:52:56.316Z,7.10
2022-12-26T07:57:58.034Z,6.60
2022-12-26T08:03:06.930Z,7.40
2022-12-26T08:08:09.371Z,7.80
2022-12-26T08:13:11.135Z,8.30
2022-12-26T08:18:12.858Z,7.50
2022-12-26T08:23:14.683Z,8.60
2022-12-26T08:28:16.763Z,7.70
2022-12-26T08:33:18.700Z,7.80
2022-12-26T08:38:20.411Z,7.60
2022-12-26T08:44:16.440Z,8.50
2022-12-26T08:48:46.959Z,7.50
2022-12-26T08:53:50.141Z,7.70
2022-12-26T08:58:51.966Z,7.40
2022-12-26T09:03:55.974Z,7.80
2022-12-26T09:08:59.416Z,8.10
2022-12-26T09:14:03.047Z,7.50
2022-12-26T09:19:06.354Z,8.80
2022-12-26T09:24:12.365Z,9.20
2022-12-26T09:29:14.737Z,12.50
2022-12-26T09:34:17.137Z,9.50
2022-12-26T09:39:18.830Z,9.40
2022-12-26T09:44:28.067Z,9.40
2022-12-26T09:49:34.681Z,10.50
2022-12-26T09:54:43.704Z,9.40
2022-12-26T09:59:58.119Z,10.90
2022-12-26T10:04:59.961Z,9.80
2022-12-26T10:10:10.957Z,9.80
2022-12-26T10:15:27.557Z,10.70
2022-12-26T10:20:47.779Z,10.70
2022-12-26T10:31:02.694Z,8.80
2022-12-26T10:36:04.806Z,8.90
2022-12-26T10:41:14.520Z,9.40
2022-12-26T10:46:30.209Z,9.50
2022-12-26T10:51:32.883Z,9.70
2022-12-26T10:56:34.623Z,9.40
2022-12-26T11:01:39.412Z,10.10
2022-12-26T11:06:43.399Z,8.20
2022-12-26T11:11:51.601Z,9.00
2022-12-26T11:16:54.435Z,9.50
2022-12-26T11:22:20.595Z,9.50
2022-12-26T11:27:24.185Z,9.50
2022-12-26T11:32:27.914Z,10.50
2022-12-26T11:37:34.325Z,10.40
2022-12-26T11:42:36.488Z,10.00
2022-12-26T11:47:45.538Z,9.60
2022-12-26T11:52:56.446Z,9.20
2022-12-26T11:58:10.531Z,8.10
2022-12-26T12:03:16.980Z,8.50
2022-12-26T12:08:21.704Z,8.30
2022-12-26T12:13:58.753Z,8.80
2022-12-26T12:19:03.533Z,9.20
2022-12-26T12:24:40.620Z,8.90
2022-12-26T12:29:51.252Z,8.40
2022-12-26T12:35:21.857Z,7.90
2022-12-26T12:40:32.658Z,8.10
2022-12-26T12:45:45.966Z,8.10
2022-12-26T12:51:24.132Z,8.20
2022-12-26T12:56:57.020Z,8.20
2022-12-26T13:02:09.638Z,8.80
2022-12-26T13:07:27.188Z,8.50
2022-12-26T13:12:48.180Z,8.20
2022-12-26T13:17:57.967Z,7.20
2022-12-26T13:23:24.174Z,7.90
2022-12-26T13:28:32.496Z,6.60
2022-12-26T13:33:35.138Z,7.40
2022-12-26T13:38:55.960Z,6.50
2022-12-26T13:44:24.598Z,6.90
2022-12-26T13:49:39.018Z,6.00
2022-12-26T13:54:46.837Z,5.90
2022-12-26T13:59:56.718Z,5.90
2022-12-26T14:05:21.363Z,5.40
2022-12-26T14:10:26.203Z,5.80
2022-12-26T14:15:56.419Z,5.50
2022-12-26T14:26:50.388Z,6.30
2022-12-26T14:32:30.099Z,6.00
2022-12-26T14:37:44.619Z,5.90
2022-12-26T14:43:16.694Z,5.60
2022-12-26T14:48:18.391Z,5.80
2022-12-26T14:53:29.490Z,6.20
2022-12-26T14:58:31.237Z,6.70
2022-12-26T15:04:09.652Z,5.30
2022-12-26T15:09:45.759Z,6.50
2022-12-26T15:15:22.035Z,6.30
2022-12-26T15:20:57.896Z,6.20
2022-12-26T15:26:33.083Z,6.50
2022-12-26T15:31:44.468Z,6.50
2022-12-26T15:36:55.434Z,7.20
2022-12-26T15:42:13.179Z,6.50
2022-12-26T15:47:44.671Z,6.20
2022-12-26T15:52:58.243Z,5.90
2022-12-26T15:58:15.259Z,6.20
2022-12-26T16:03:45.489Z,6.40
2022-12-26T16:14:03.699Z,7.00
2022-12-26T16:19:38.097Z,6.30
2022-12-26T16:24:42.538Z,6.60
2022-12-26T16:30:02.097Z,6.50
2022-12-26T16:35:16.417Z,6.70
2022-12-26T16:40:24.149Z,6.90
2022-12-26T16:45:27.619Z,6.40
2022-12-26T16:50:32.761Z,6.40
2022-12-26T16:55:42.119Z,6.50
2022-12-26T17:00:51.718Z,6.30
2022-12-26T17:05:53.586Z,6.50
2022-12-26T17:10:55.473Z,6.60
2022-12-26T17:15:59.880Z,6.40
2022-12-26T17:21:20.230Z,6.90
2022-12-26T17:26:24.368Z,7.00
2022-12-26T17:31:33.010Z,8.70
2022-12-26T17:41:59.601Z,8.10
2022-12-26T17:47:06.768Z,8.40
2022-12-26T17:52:14.103Z,8.40
2022-12-26T17:57:22.700Z,9.00
2022-12-26T18:02:25.144Z,9.10
2022-12-26T18:07:31.428Z,10.00
2022-12-26T18:12:33.618Z,9.30
2022-12-26T18:17:35.440Z,9.60
2022-12-26T18:22:37.258Z,9.50
2022-12-26T18:27:39.020Z,9.90
2022-12-26T18:32:41.157Z,9.40
2022-12-26T18:37:48.029Z,9.70
2022-12-26T18:42:50.240Z,9.10
2022-12-26T18:47:52.164Z,8.70
2022-12-26T18:52:55.380Z,8.00
2022-12-26T18:57:57.961Z,9.30
2022-12-26T19:02:59.641Z,7.30
2022-12-26T19:08:02.478Z,6.70
2022-12-26T19:13:05.950Z,6.60
2022-12-26T19:18:08.337Z,7.60
2022-12-26T19:23:10.625Z,7.70
2022-12-26T19:28:12.880Z,7.10
2022-12-26T19:33:14.540Z,7.70
2022-12-26T19:38:16.247Z,8.00
2022-12-26T19:43:18.006Z,8.00
2022-12-26T19:48:19.791Z,7.50
2022-12-26T19:53:21.781Z,7.00
2022-12-26T19:58:24.181Z,8.70
2022-12-26T20:03:25.946Z,8.30
2022-12-26T20:08:27.708Z,8.20
2022-12-26T20:13:29.376Z,8.40
2022-12-26T20:18:31.584Z,7.40
2022-12-26T20:23:35.780Z,7.90
2022-12-26T20:28:37.883Z,7.50
2022-12-26T20:33:41.909Z,8.00
2022-12-26T20:38:46.018Z,7.70
2022-12-26T20:43:49.248Z,7.90
2022-12-26T20:48:52.836Z,7.90
2022-12-26T20:53:54.561Z,8.70
2022-12-26T20:58:59.671Z,8.10
2022-12-26T21:04:01.834Z,8.70
2022-12-26T21:09:06.380Z,8.40
2022-12-26T21:14:12.845Z,9.90
2022-12-26T21:19:17.172Z,10.20
2022-12-26T21:24:22.256Z,10.20
2022-12-26T21:29:30.904Z,9.70
2022-12-26T21:34:33.875Z,9.60
2022-12-26T21:39:36.824Z,9.90
2022-12-26T21:44:38.725Z,11.00
2022-12-26T21:49:41.017Z,9.70
2022-12-26T21:55:01.650Z,9.20
2022-12-26T22:00:04.822Z,9.60
2022-12-26T22:05:07.366Z,10.10
2022-12-26T22:10:29.753Z,10.90
2022-12-26T22:15:51.033Z,9.40
2022-12-26T22:20:52.811Z,10.50
2022-12-26T22:25:55.836Z,10.50
2022-12-26T22:30:59.349Z,8.50
2022-12-26T22:36:08.824Z,10.20
2022-12-26T22:41:10.643Z,10.70
2022-12-26T22:46:13.545Z,10.00
2022-12-26T22:51:21.482Z,10.30
2022-12-26T22:56:23.327Z,10.60
2022-12-26T23:01:25.202Z,11.10
2022-12-26T23:06:35.996Z,10.80
2022-12-26T23:11:38.132Z,10.30
2022-12-26T23:16:56.334Z,10.10
2022-12-26T23:22:00.370Z,8.60
2022-12-26T23:27:25.589Z,9.00
2022-12-26T23:32:27.613Z,8.40
2022-12-26T23:37:29.333Z,8.20
2022-12-26T23:42:31.179Z,8.00
2022-12-26T23:47:36.050Z,7.90
2022-12-26T23:52:37.724Z,7.30
2022-12-26T23:57:39.563Z,7.10
